Paluxy, Texas
Current Conditions -  °F | °C
As of 7:55 PM on Saturday 22 Nov 2014 (Local Time) from KGDJ Reporting Station
Moderate Rain Moderate Rain  
Wind Chill: 58°   Ceiling: 3200
Heat Index: 58°   Visibility: 7mi
Dew Point: 56°   Wind: 5mph
Humidity: 92%   Direction: 140°SE
Pressure: 29.86"   Gusts: NA
Location:  32.27°N, 97.91°W
Report Text: KGDJ 230155Z AUTO 14004KT 7SM RA SCT016 BKN032 OVC050 15/13 A2986 RMK AO2 LTG DSNT SE P0007 T01450132
Loading
Personal Weather Stations






























Interactive Weather Map New forecast layout! Learn more

10-Day Weather Forecast

Advertisements
Track Severe Weather on mobile